createdAt,value
2022-10-17T00:00:14.861Z,2.47
2022-10-17T00:02:44.023Z,2.90
2022-10-17T00:05:12.178Z,3.10
2022-10-17T00:07:40.077Z,3.23
2022-10-17T00:10:08.862Z,3.00
2022-10-17T00:12:36.887Z,2.93
2022-10-17T00:15:06.863Z,2.83
2022-10-17T00:17:34.938Z,2.70
2022-10-17T00:20:04.520Z,2.60
2022-10-17T00:22:32.310Z,3.17
2022-10-17T00:25:00.155Z,3.03
2022-10-17T00:27:28.148Z,2.90
2022-10-17T00:29:56.091Z,3.77
2022-10-17T00:32:23.898Z,3.40
2022-10-17T00:34:51.641Z,3.50
2022-10-17T00:37:20.781Z,3.27
2022-10-17T00:39:48.608Z,3.23
2022-10-17T00:42:16.734Z,3.73
2022-10-17T00:45:17.154Z,3.70
2022-10-17T00:47:49.720Z,3.70
2022-10-17T00:50:18.608Z,3.47
2022-10-17T00:52:49.391Z,3.70
2022-10-17T00:55:21.426Z,3.90
2022-10-17T00:57:49.647Z,4.40
2022-10-17T01:00:18.539Z,4.03
2022-10-17T01:02:46.775Z,3.97
2022-10-17T01:05:16.418Z,4.27
2022-10-17T01:07:45.228Z,4.53
2022-10-17T01:10:15.654Z,4.37
2022-10-17T01:12:58.178Z,4.80
2022-10-17T01:15:36.984Z,4.93
2022-10-17T01:18:16.468Z,4.90
2022-10-17T01:21:21.899Z,4.87
2022-10-17T01:24:25.841Z,5.07
2022-10-17T01:27:31.036Z,5.07
2022-10-17T01:30:25.295Z,6.03
2022-10-17T01:32:59.955Z,6.50
2022-10-17T01:35:36.932Z,6.90
2022-10-17T01:38:11.562Z,6.60
2022-10-17T01:40:45.348Z,6.50
2022-10-17T01:43:21.524Z,5.53
2022-10-17T01:45:54.053Z,6.13
2022-10-17T01:48:26.890Z,5.37
2022-10-17T01:50:59.845Z,5.43
2022-10-17T01:53:33.665Z,5.90
2022-10-17T01:56:04.145Z,6.53
2022-10-17T01:58:35.294Z,5.33
2022-10-17T02:01:07.088Z,5.37
2022-10-17T02:03:36.939Z,5.93
2022-10-17T02:06:05.286Z,6.07
2022-10-17T02:08:43.915Z,5.50
2022-10-17T02:11:16.130Z,5.80
2022-10-17T02:13:58.312Z,5.53
2022-10-17T02:16:37.155Z,5.67
2022-10-17T02:19:21.263Z,5.20
2022-10-17T02:21:55.315Z,5.57
2022-10-17T02:24:33.471Z,5.13
2022-10-17T02:27:09.856Z,5.13
2022-10-17T02:29:45.372Z,5.53
2022-10-17T02:32:17.376Z,5.50
2022-10-17T02:34:50.023Z,5.17
2022-10-17T02:37:24.218Z,5.27
2022-10-17T02:39:53.055Z,5.50
2022-10-17T02:42:22.697Z,5.37
2022-10-17T02:44:51.134Z,5.53
2022-10-17T02:47:23.151Z,5.40
2022-10-17T02:49:54.562Z,5.53
2022-10-17T02:52:29.484Z,5.50
2022-10-17T02:55:02.252Z,5.27
2022-10-17T02:57:35.350Z,5.27
2022-10-17T03:00:05.240Z,5.50
2022-10-17T03:02:40.359Z,5.60
2022-10-17T03:05:10.654Z,5.23
2022-10-17T03:07:38.708Z,5.43
2022-10-17T03:10:07.429Z,5.40
2022-10-17T03:12:35.236Z,5.57
2022-10-17T03:15:03.100Z,5.40
2022-10-17T03:17:30.948Z,5.00
2022-10-17T03:19:59.059Z,5.77
2022-10-17T03:22:28.504Z,5.47
2022-10-17T03:24:56.500Z,5.23
2022-10-17T03:27:24.262Z,5.47
2022-10-17T03:29:52.039Z,5.57
2022-10-17T03:32:19.782Z,5.43
2022-10-17T03:34:47.605Z,5.43
2022-10-17T03:37:15.378Z,5.20
2022-10-17T03:39:44.477Z,5.83
2022-10-17T03:42:12.275Z,5.37
2022-10-17T03:44:39.996Z,5.10
2022-10-17T03:47:09.372Z,4.97
2022-10-17T03:49:39.721Z,5.23
2022-10-17T03:52:07.790Z,4.90
2022-10-17T03:54:35.604Z,5.10
2022-10-17T03:57:04.990Z,5.00
2022-10-17T03:59:32.923Z,4.73
2022-10-17T04:02:00.782Z,4.70
2022-10-17T04:04:28.780Z,5.20
2022-10-17T04:06:56.529Z,5.30
2022-10-17T04:09:24.312Z,5.00
2022-10-17T04:11:52.316Z,5.13
2022-10-17T04:14:21.436Z,4.97
2022-10-17T04:16:49.301Z,5.00
2022-10-17T04:19:17.179Z,5.03
2022-10-17T04:21:44.959Z,4.50
2022-10-17T04:24:13.321Z,5.20
2022-10-17T04:26:41.100Z,4.60
2022-10-17T04:29:08.852Z,4.37
2022-10-17T04:31:37.980Z,4.90
2022-10-17T04:34:05.715Z,4.90
2022-10-17T04:36:33.536Z,4.47
2022-10-17T04:39:02.978Z,5.07
2022-10-17T04:41:30.766Z,4.60
2022-10-17T04:43:58.635Z,4.60
2022-10-17T04:46:26.454Z,5.00
2022-10-17T04:48:56.356Z,4.77
2022-10-17T04:51:26.507Z,4.87
2022-10-17T04:53:54.669Z,4.97
2022-10-17T04:56:24.160Z,4.73
2022-10-17T04:58:52.291Z,5.63
2022-10-17T05:01:21.699Z,4.80
2022-10-17T05:03:49.797Z,4.60
2022-10-17T05:06:20.281Z,4.17
2022-10-17T05:08:48.973Z,4.97
2022-10-17T05:11:19.492Z,4.60
2022-10-17T05:13:51.659Z,4.80
2022-10-17T05:16:19.479Z,4.90
2022-10-17T05:18:52.775Z,4.40
2022-10-17T05:21:23.473Z,4.70
2022-10-17T05:23:51.731Z,4.68
2022-10-17T05:26:20.572Z,4.80
2022-10-17T05:28:48.799Z,4.97
2022-10-17T05:31:16.647Z,4.50
2022-10-17T05:33:44.493Z,4.63
2022-10-17T05:36:12.358Z,4.93
2022-10-17T05:38:41.578Z,4.90
2022-10-17T05:41:10.788Z,4.70
2022-10-17T05:43:38.605Z,4.93
2022-10-17T05:46:07.396Z,5.37
2022-10-17T05:48:35.759Z,5.17
2022-10-17T05:51:07.832Z,4.97
2022-10-17T05:53:37.433Z,4.07
2022-10-17T05:56:09.081Z,4.40
2022-10-17T05:58:49.782Z,4.53
2022-10-17T06:01:19.172Z,4.27
2022-10-17T06:03:47.005Z,4.63
2022-10-17T06:06:16.011Z,4.30
2022-10-17T06:08:44.153Z,3.67
2022-10-17T06:11:14.331Z,4.57
2022-10-17T06:13:42.481Z,4.80
2022-10-17T06:16:10.285Z,4.57
2022-10-17T06:18:38.296Z,4.37
2022-10-17T06:21:08.042Z,4.23
2022-10-17T06:23:35.861Z,4.40
2022-10-17T06:26:06.596Z,4.83
2022-10-17T06:28:36.537Z,4.50
2022-10-17T06:31:06.628Z,4.50
2022-10-17T06:33:34.466Z,4.10
2022-10-17T06:36:02.904Z,4.37
2022-10-17T06:38:31.045Z,5.05
2022-10-17T06:41:04.998Z,5.33
2022-10-17T06:43:32.770Z,4.43
2022-10-17T06:46:02.097Z,4.60
2022-10-17T06:48:29.950Z,4.30
2022-10-17T06:51:00.170Z,4.82
2022-10-17T06:53:29.117Z,4.47
2022-10-17T06:56:01.411Z,4.77
2022-10-17T06:58:29.582Z,4.00
2022-10-17T07:01:01.732Z,4.23
2022-10-17T07:03:29.829Z,4.40
2022-10-17T07:05:58.402Z,4.05
2022-10-17T07:08:26.596Z,4.10
2022-10-17T07:10:54.667Z,4.70
2022-10-17T07:13:22.483Z,4.20
2022-10-17T07:15:50.306Z,4.47
2022-10-17T07:18:19.460Z,3.97
2022-10-17T07:20:54.550Z,4.03
2022-10-17T07:23:22.328Z,4.60
2022-10-17T07:25:50.209Z,4.05
2022-10-17T07:28:18.309Z,4.40
2022-10-17T07:30:49.476Z,4.50
2022-10-17T07:33:21.292Z,4.10
2022-10-17T07:35:49.054Z,4.20
2022-10-17T07:38:16.829Z,4.25
2022-10-17T07:40:44.937Z,3.83
2022-10-17T07:43:12.747Z,4.20
2022-10-17T07:45:42.414Z,4.28
2022-10-17T07:48:10.233Z,4.03
2022-10-17T07:50:40.389Z,3.78
2022-10-17T07:53:08.317Z,4.13
2022-10-17T07:55:37.795Z,3.92
2022-10-17T07:58:06.212Z,4.27
2022-10-17T08:00:34.255Z,4.50
2022-10-17T08:03:02.067Z,3.97
2022-10-17T08:05:30.276Z,4.00
2022-10-17T08:07:59.400Z,3.90
2022-10-17T08:10:29.364Z,3.88
2022-10-17T08:12:58.039Z,4.05
2022-10-17T08:15:30.908Z,4.55
2022-10-17T08:18:00.239Z,3.95
2022-10-17T08:20:28.327Z,3.90
2022-10-17T08:22:56.657Z,3.65
2022-10-17T08:25:26.016Z,3.92
2022-10-17T08:27:53.850Z,4.03
2022-10-17T08:30:21.691Z,3.67
2022-10-17T08:32:49.416Z,3.58
2022-10-17T08:35:17.505Z,3.78
2022-10-17T08:37:45.314Z,3.60
2022-10-17T08:40:20.668Z,3.88
2022-10-17T08:43:05.767Z,4.13
2022-10-17T08:45:36.977Z,3.92
2022-10-17T08:48:10.161Z,3.50
2022-10-17T08:50:41.579Z,4.00
2022-10-17T08:53:18.196Z,4.07
2022-10-17T08:55:48.282Z,5.63
2022-10-17T08:58:22.160Z,4.07
2022-10-17T09:00:58.736Z,3.33
2022-10-17T09:03:43.203Z,3.80
2022-10-17T09:06:19.433Z,4.13
2022-10-17T09:08:59.180Z,3.78
2022-10-17T09:11:43.954Z,3.67
2022-10-17T09:14:37.045Z,3.70
2022-10-17T09:17:18.980Z,3.72
2022-10-17T09:20:01.376Z,3.58
2022-10-17T09:22:34.982Z,3.70
2022-10-17T09:25:07.708Z,4.05
2022-10-17T09:27:37.908Z,3.42
2022-10-17T09:30:43.664Z,3.80
2022-10-17T09:33:23.347Z,4.07
2022-10-17T09:36:04.034Z,3.60
2022-10-17T09:38:39.207Z,3.80
2022-10-17T09:41:32.374Z,4.03
2022-10-17T09:44:18.555Z,3.92
2022-10-17T09:47:00.565Z,3.92
2022-10-17T09:49:33.622Z,4.03
2022-10-17T09:52:02.349Z,3.42
2022-10-17T09:54:40.902Z,4.03
2022-10-17T09:57:10.742Z,3.95
2022-10-17T09:59:40.508Z,3.70
2022-10-17T10:02:18.381Z,3.88
2022-10-17T10:05:06.605Z,3.58
2022-10-17T10:07:37.480Z,4.15
2022-10-17T10:10:07.931Z,4.38
2022-10-17T10:12:38.824Z,3.60
2022-10-17T10:15:33.281Z,3.70
2022-10-17T10:18:02.984Z,3.97
2022-10-17T10:20:34.596Z,4.07
2022-10-17T10:23:14.248Z,3.50
2022-10-17T10:25:54.746Z,4.18
2022-10-17T10:28:27.325Z,3.78
2022-10-17T10:30:56.557Z,4.30
2022-10-17T10:33:30.984Z,4.15
2022-10-17T10:36:03.496Z,4.03
2022-10-17T10:38:33.185Z,4.18
2022-10-17T10:41:05.859Z,3.85
2022-10-17T10:43:37.923Z,4.53
2022-10-17T10:46:17.546Z,4.25
2022-10-17T10:48:55.113Z,5.47
2022-10-17T10:51:28.919Z,4.18
2022-10-17T10:54:06.729Z,4.43
2022-10-17T10:56:39.747Z,4.85
2022-10-17T10:59:14.929Z,4.45
2022-10-17T11:01:49.933Z,7.80
2022-10-17T11:04:28.395Z,5.30
2022-10-17T11:07:05.579Z,4.97
2022-10-17T11:09:46.174Z,4.20
2022-10-17T11:12:19.867Z,4.65
2022-10-17T11:14:53.538Z,4.40
2022-10-17T11:17:30.546Z,4.43
2022-10-17T11:20:15.070Z,4.40
2022-10-17T11:22:46.028Z,4.70
2022-10-17T11:25:29.833Z,4.85
2022-10-17T11:28:00.985Z,4.55
2022-10-17T11:30:42.298Z,4.80
2022-10-17T11:33:14.222Z,4.75
2022-10-17T11:35:47.181Z,4.72
2022-10-17T11:38:21.633Z,4.50
2022-10-17T11:40:52.500Z,4.72
2022-10-17T11:43:28.170Z,4.63
2022-10-17T11:46:01.444Z,4.38
2022-10-17T11:48:33.273Z,4.35
2022-10-17T11:54:03.496Z,3.95
2022-10-17T11:56:42.749Z,4.95
2022-10-17T11:59:40.854Z,14.60
2022-10-17T12:02:15.587Z,7.07
2022-10-17T12:04:54.923Z,7.97
2022-10-17T12:07:35.757Z,6.75
2022-10-17T12:10:18.861Z,5.10
2022-10-17T12:12:48.213Z,4.47
2022-10-17T12:15:30.424Z,4.60
2022-10-17T12:18:02.319Z,4.72
2022-10-17T12:20:33.225Z,4.05
2022-10-17T12:23:07.517Z,4.55
2022-10-17T12:28:18.501Z,4.40
2022-10-17T12:30:58.286Z,4.50
2022-10-17T12:33:33.173Z,4.60
2022-10-17T12:36:43.244Z,4.60
2022-10-17T12:39:51.662Z,4.53
2022-10-17T12:42:47.599Z,4.75
2022-10-17T12:45:51.512Z,4.63
2022-10-17T12:48:55.676Z,4.90
2022-10-17T12:51:40.515Z,5.18
2022-10-17T12:54:13.453Z,5.13
2022-10-17T12:56:43.594Z,5.38
2022-10-17T12:59:17.933Z,5.03
2022-10-17T13:01:49.048Z,5.28
2022-10-17T13:04:17.833Z,5.53
2022-10-17T13:06:48.211Z,5.30
2022-10-17T13:09:25.490Z,5.88
2022-10-17T13:11:54.685Z,5.13
2022-10-17T13:14:25.636Z,5.55
2022-10-17T13:16:55.695Z,5.57
2022-10-17T13:19:26.769Z,5.28
2022-10-17T13:22:00.965Z,5.50
2022-10-17T13:24:34.102Z,5.20
2022-10-17T13:27:03.090Z,5.97
2022-10-17T13:29:32.982Z,4.72
2022-10-17T13:32:03.906Z,4.40
2022-10-17T13:34:33.178Z,5.40
2022-10-17T13:37:03.968Z,5.20
2022-10-17T13:39:52.765Z,4.38
2022-10-17T13:42:28.575Z,5.15
2022-10-17T13:44:59.448Z,5.00
2022-10-17T13:47:32.279Z,5.18
2022-10-17T13:50:00.607Z,4.60
2022-10-17T13:52:30.770Z,4.60
2022-10-17T13:55:08.767Z,5.03
2022-10-17T13:57:36.837Z,4.57
2022-10-17T14:00:12.514Z,4.90
2022-10-17T14:02:42.547Z,4.68
2022-10-17T14:05:24.921Z,4.70
2022-10-17T14:08:12.357Z,5.10
2022-10-17T14:10:42.105Z,4.18
2022-10-17T14:13:21.714Z,3.53
2022-10-17T14:15:50.451Z,3.97
2022-10-17T14:18:22.936Z,5.30
2022-10-17T14:21:36.868Z,3.97
2022-10-17T14:23:43.334Z,3.97
2022-10-17T14:26:16.770Z,3.25
2022-10-17T14:28:47.970Z,3.70
2022-10-17T14:31:26.514Z,4.25
2022-10-17T14:33:55.464Z,4.40
2022-10-17T14:36:34.948Z,4.20
2022-10-17T14:39:03.894Z,3.40
2022-10-17T14:41:44.048Z,3.72
2022-10-17T14:44:20.798Z,4.03
2022-10-17T14:46:52.911Z,9.52
2022-10-17T14:49:24.863Z,4.50
2022-10-17T14:52:27.414Z,4.15
2022-10-17T14:54:55.543Z,3.10
2022-10-17T14:57:27.263Z,5.22
2022-10-17T14:59:56.262Z,4.20
2022-10-17T15:02:25.402Z,4.35
2022-10-17T15:04:53.584Z,4.45
2022-10-17T15:07:23.666Z,4.82
2022-10-17T15:09:54.678Z,4.38
2022-10-17T15:12:25.114Z,4.35
2022-10-17T15:14:53.537Z,3.85
2022-10-17T15:17:24.620Z,4.35
2022-10-17T15:19:52.493Z,4.13
2022-10-17T15:22:20.442Z,4.35
2022-10-17T15:24:48.356Z,4.18
2022-10-17T15:27:19.593Z,4.53
2022-10-17T15:29:47.779Z,4.63
2022-10-17T15:32:16.612Z,4.72
2022-10-17T15:34:44.933Z,4.60
2022-10-17T15:37:21.927Z,4.40
2022-10-17T15:39:53.524Z,4.93
2022-10-17T15:42:27.766Z,4.63
2022-10-17T15:44:55.781Z,4.70
2022-10-17T15:47:26.081Z,5.07
2022-10-17T15:49:54.931Z,5.00
2022-10-17T15:52:23.365Z,5.20
2022-10-17T15:54:51.412Z,5.40
2022-10-17T15:57:22.146Z,5.13
2022-10-17T15:59:52.418Z,5.32
2022-10-17T16:02:21.802Z,4.90
2022-10-17T16:04:50.769Z,5.40
2022-10-17T16:07:19.486Z,5.00
2022-10-17T16:09:47.762Z,5.30
2022-10-17T16:12:18.815Z,5.32
2022-10-17T16:14:46.758Z,4.70
2022-10-17T16:17:17.720Z,4.90
2022-10-17T16:19:45.776Z,5.13
2022-10-17T16:22:21.828Z,4.35
2022-10-17T16:24:49.610Z,4.22
2022-10-17T16:27:17.412Z,4.60
2022-10-17T16:29:45.342Z,4.50
2022-10-17T16:32:13.199Z,4.28
2022-10-17T16:34:42.449Z,4.25
2022-10-17T16:37:10.337Z,4.40
2022-10-17T16:39:38.328Z,4.03
2022-10-17T16:42:06.187Z,3.90
2022-10-17T16:44:34.070Z,4.43
2022-10-17T16:47:01.898Z,4.47
2022-10-17T16:49:29.781Z,4.28
2022-10-17T16:51:58.969Z,4.57
2022-10-17T16:54:26.952Z,4.45
2022-10-17T16:56:54.748Z,4.28
2022-10-17T16:59:22.602Z,4.53
2022-10-17T17:01:50.677Z,4.88
2022-10-17T17:04:18.682Z,4.65
2022-10-17T17:06:46.618Z,5.60
2022-10-17T17:09:15.967Z,5.28
2022-10-17T17:11:43.900Z,5.40
2022-10-17T17:14:13.053Z,5.25
2022-10-17T17:16:40.886Z,5.82
2022-10-17T17:19:12.374Z,6.07
2022-10-17T17:21:40.730Z,5.63
2022-10-17T17:24:08.615Z,5.57
2022-10-17T17:26:37.840Z,6.10
2022-10-17T17:29:06.195Z,6.93
2022-10-17T17:31:36.150Z,7.63
2022-10-17T17:34:04.238Z,7.00
2022-10-17T17:36:34.081Z,5.72
2022-10-17T17:39:04.092Z,6.78
2022-10-17T17:41:32.168Z,6.55
2022-10-17T17:44:02.147Z,7.50
2022-10-17T17:46:30.517Z,7.28
2022-10-17T17:48:58.354Z,6.53
2022-10-17T17:51:29.393Z,7.35
2022-10-17T17:53:58.198Z,6.97
2022-10-17T17:56:29.676Z,6.68
2022-10-17T17:58:59.764Z,6.97
2022-10-17T18:01:31.674Z,6.80
2022-10-17T18:04:00.356Z,6.30
2022-10-17T18:06:29.334Z,6.22
2022-10-17T18:08:58.895Z,6.63
2022-10-17T18:11:28.387Z,6.00
2022-10-17T18:13:57.327Z,6.18
2022-10-17T18:16:25.860Z,6.45
2022-10-17T18:18:55.125Z,6.07
2022-10-17T18:21:23.410Z,5.25
2022-10-17T18:23:52.751Z,6.78
2022-10-17T18:26:20.926Z,6.15
2022-10-17T18:28:50.030Z,5.90
2022-10-17T18:31:24.127Z,5.65
2022-10-17T18:33:54.667Z,6.15
2022-10-17T18:36:23.235Z,5.72
2022-10-17T18:38:51.284Z,6.13
2022-10-17T18:41:21.338Z,5.60
2022-10-17T18:43:50.770Z,5.13
2022-10-17T18:46:21.478Z,5.05
2022-10-17T18:48:50.564Z,5.25
2022-10-17T18:51:22.956Z,5.68
2022-10-17T18:53:52.654Z,5.70
2022-10-17T18:56:21.569Z,5.18
2022-10-17T18:58:49.469Z,5.68
2022-10-17T19:01:19.629Z,5.95
2022-10-17T19:03:49.250Z,5.95
2022-10-17T19:06:20.494Z,6.25
2022-10-17T19:08:49.236Z,6.82
2022-10-17T19:11:20.698Z,6.30
2022-10-17T19:13:49.423Z,6.50
2022-10-17T19:16:19.662Z,6.63
2022-10-17T19:18:50.819Z,6.18
2022-10-17T19:21:21.976Z,6.03
2022-10-17T19:23:52.381Z,6.90
2022-10-17T19:26:21.173Z,7.00
2022-10-17T19:28:52.250Z,6.97
2022-10-17T19:31:25.564Z,6.00
2022-10-17T19:33:55.552Z,6.63
2022-10-17T19:36:29.075Z,5.75
2022-10-17T19:39:00.329Z,5.88
2022-10-17T19:41:29.098Z,6.00
2022-10-17T19:43:56.987Z,6.47
2022-10-17T19:46:26.551Z,6.03
2022-10-17T19:48:54.423Z,6.18
2022-10-17T19:51:24.967Z,5.93
2022-10-17T19:53:53.922Z,5.40
2022-10-17T19:56:22.994Z,5.72
2022-10-17T19:58:52.148Z,4.63
2022-10-17T20:01:22.779Z,5.85
2022-10-17T20:03:50.721Z,5.68
2022-10-17T20:06:20.319Z,5.50
2022-10-17T20:08:49.935Z,5.43
2022-10-17T20:11:21.504Z,5.60
2022-10-17T20:13:49.794Z,5.20
2022-10-17T20:16:21.358Z,4.95
2022-10-17T20:18:50.059Z,4.78
2022-10-17T20:21:19.636Z,7.10
2022-10-17T20:23:49.103Z,6.38
2022-10-17T20:26:26.266Z,5.07
2022-10-17T20:29:02.593Z,5.93
2022-10-17T20:31:30.746Z,5.57
2022-10-17T20:34:00.172Z,4.93
2022-10-17T20:36:28.070Z,4.90
2022-10-17T20:38:59.123Z,4.78
2022-10-17T20:41:28.132Z,4.70
2022-10-17T20:43:56.489Z,4.43
2022-10-17T20:46:45.189Z,4.85
2022-10-17T20:49:16.195Z,4.70
2022-10-17T20:51:44.336Z,4.53
2022-10-17T20:54:13.876Z,4.63
2022-10-17T20:56:41.701Z,4.03
2022-10-17T20:59:13.624Z,4.20
2022-10-17T21:01:41.798Z,4.50
2022-10-17T21:04:40.687Z,4.10
2022-10-17T21:06:58.322Z,4.07
2022-10-17T21:09:27.633Z,4.23
2022-10-17T21:11:56.065Z,4.67
2022-10-17T21:14:25.115Z,4.13
2022-10-17T21:16:53.373Z,4.53
2022-10-17T21:19:22.695Z,4.45
2022-10-17T21:21:50.752Z,4.97
2022-10-17T21:24:20.514Z,4.37
2022-10-17T21:26:55.422Z,4.38
2022-10-17T21:29:24.309Z,4.25
2022-10-17T21:31:52.479Z,4.25
2022-10-17T21:34:22.460Z,4.40
2022-10-17T21:36:50.424Z,4.33
2022-10-17T21:39:18.945Z,4.07
2022-10-17T21:41:46.764Z,4.43
2022-10-17T21:44:17.977Z,4.50
2022-10-17T21:46:46.454Z,4.80
2022-10-17T21:49:16.393Z,4.20
2022-10-17T21:51:44.692Z,4.50
2022-10-17T21:54:12.902Z,4.30
2022-10-17T21:56:40.994Z,4.70
2022-10-17T21:59:09.888Z,4.15
2022-10-17T22:01:41.105Z,4.22
2022-10-17T22:04:11.396Z,4.17
2022-10-17T22:06:41.589Z,4.95
2022-10-17T22:09:12.887Z,4.37
2022-10-17T22:11:40.706Z,4.07
2022-10-17T22:14:12.709Z,4.00
2022-10-17T22:16:44.185Z,4.32
2022-10-17T22:19:12.856Z,4.00
2022-10-17T22:21:41.040Z,3.67
2022-10-17T22:24:12.003Z,3.60
2022-10-17T22:26:40.481Z,4.17
2022-10-17T22:29:09.399Z,3.50
2022-10-17T22:31:38.267Z,3.83
2022-10-17T22:34:08.503Z,3.30
2022-10-17T22:36:37.163Z,3.50
2022-10-17T22:39:05.575Z,3.63
2022-10-17T22:41:33.590Z,3.27
2022-10-17T22:44:01.408Z,3.80
2022-10-17T22:46:29.334Z,3.10
2022-10-17T22:48:57.241Z,3.70
2022-10-17T22:51:26.457Z,3.25
2022-10-17T22:53:54.317Z,3.60
2022-10-17T22:56:23.650Z,3.47
2022-10-17T22:58:52.329Z,3.95
2022-10-17T23:01:22.420Z,3.53
2022-10-17T23:03:50.728Z,3.80
2022-10-17T23:06:18.881Z,3.07
2022-10-17T23:08:48.105Z,2.93
2022-10-17T23:11:15.966Z,3.30
2022-10-17T23:13:43.754Z,3.13
2022-10-17T23:16:11.537Z,2.97
2022-10-17T23:18:39.832Z,3.13
2022-10-17T23:21:08.681Z,3.10
2022-10-17T23:23:37.149Z,3.13
2022-10-17T23:26:08.202Z,2.72
2022-10-17T23:28:36.205Z,2.73
2022-10-17T23:31:12.174Z,2.73
2022-10-17T23:33:41.390Z,2.75
2022-10-17T23:36:10.619Z,2.57
2022-10-17T23:38:38.460Z,3.08
2022-10-17T23:41:07.726Z,2.90
2022-10-17T23:43:36.025Z,2.85
2022-10-17T23:46:05.060Z,3.13
2022-10-17T23:48:33.052Z,2.83
2022-10-17T23:51:00.926Z,2.73
2022-10-17T23:53:28.756Z,2.90
2022-10-17T23:55:56.559Z,2.60
2022-10-17T23:58:27.406Z,2.97
